createdAt,value
2022-12-06T00:01:02.702Z,18.498
2022-12-06T00:16:04.630Z,19.169
2022-12-06T00:31:06.479Z,19.139
2022-12-06T00:46:08.325Z,18.883
2022-12-06T01:01:10.352Z,18.783
2022-12-06T01:16:12.321Z,18.475
2022-12-06T01:31:14.282Z,18.333
2022-12-06T01:46:16.252Z,18.426
2022-12-06T02:01:18.225Z,18.134
2022-12-06T02:16:20.140Z,18.403
2022-12-06T02:31:22.063Z,17.959
2022-12-06T02:46:24.029Z,17.982
2022-12-06T03:01:25.993Z,17.837
2022-12-06T03:16:27.905Z,18.186
2022-12-06T03:31:29.829Z,18.23
2022-12-06T03:46:31.790Z,17.815
2022-12-06T04:01:33.725Z,18.253
2022-12-06T04:16:35.621Z,18.456
2022-12-06T04:31:37.644Z,17.999
2022-12-06T04:46:39.536Z,18.095
2022-12-06T05:01:41.380Z,17.835
2022-12-06T05:16:43.243Z,18.229
2022-12-06T05:31:45.222Z,18.234
2022-12-06T05:46:47.061Z,18.43
2022-12-06T06:01:48.911Z,19.439
2022-12-06T06:16:50.768Z,18.594
2022-12-06T06:31:52.635Z,19.773
2022-12-06T06:46:54.509Z,18.842
2022-12-06T07:01:56.526Z,19.422
2022-12-06T07:16:58.531Z,18.995
2022-12-06T07:32:00.418Z,19.167
2022-12-06T07:47:02.226Z,19.833
2022-12-06T08:02:04.134Z,19.076
2022-12-06T08:17:06.028Z,19.726
2022-12-06T08:32:07.826Z,19.646
2022-12-06T08:47:09.681Z,19.467
2022-12-06T09:02:11.604Z,20.391
2022-12-06T09:17:13.483Z,19.393
2022-12-06T09:32:15.342Z,19.741
2022-12-06T09:47:17.180Z,20.273
2022-12-06T10:02:19.151Z,19.182
2022-12-06T10:17:21.067Z,19.936
2022-12-06T10:32:22.873Z,19.288
2022-12-06T10:47:24.684Z,19.511
2022-12-06T11:02:26.611Z,20.13
2022-12-06T11:17:28.505Z,19.179
2022-12-06T11:32:30.346Z,19.607
2022-12-06T11:47:32.153Z,19.676
2022-12-06T12:02:34.036Z,19.028
2022-12-06T12:17:35.936Z,19.615
2022-12-06T12:32:37.811Z,19.001
2022-12-06T12:47:39.644Z,20.427
2022-12-06T13:02:41.529Z,19.811
2022-12-06T13:17:43.395Z,21.014
2022-12-06T13:32:45.235Z,24.217
2022-12-06T13:47:47.097Z,23.188
2022-12-06T14:02:49.067Z,22.171
2022-12-06T14:18:03.177Z,22.038
2022-12-06T14:33:06.377Z,22.221
2022-12-06T14:48:08.230Z,22.069
2022-12-06T15:03:10.109Z,21.987
2022-12-06T15:18:11.963Z,21.809
2022-12-06T15:33:13.830Z,22.227
2022-12-06T15:48:15.658Z,21.34
2022-12-06T16:03:17.538Z,21.884
2022-12-06T16:18:19.433Z,22.128
2022-12-06T16:33:21.291Z,21.622
2022-12-06T16:48:23.139Z,21.951
2022-12-06T17:03:24.994Z,21.618
2022-12-06T17:18:26.851Z,21.204
2022-12-06T17:33:28.699Z,21.38
2022-12-06T17:48:35.293Z,20.838
2022-12-06T18:03:38.848Z,21.429
2022-12-06T18:18:40.703Z,20.682
2022-12-06T18:33:42.536Z,21.429
2022-12-06T18:48:44.364Z,20.597
2022-12-06T19:03:46.221Z,21.226
2022-12-06T19:18:48.064Z,20.677
2022-12-06T19:33:49.913Z,21.482
2022-12-06T19:48:51.725Z,20.655
2022-12-06T20:03:53.574Z,22.095
2022-12-06T20:18:55.401Z,20.73
2022-12-06T20:33:57.206Z,21.956
2022-12-06T20:48:59.015Z,20.866
2022-12-06T21:04:00.849Z,22.16
2022-12-06T21:19:02.713Z,20.623
2022-12-06T21:34:04.555Z,22.068
2022-12-06T21:49:06.462Z,20.454
2022-12-06T22:04:08.301Z,21.831
2022-12-06T22:19:10.101Z,20.401
2022-12-06T22:34:11.911Z,21.596
2022-12-06T22:49:17.852Z,20.357
2022-12-06T23:04:20.146Z,21.644
2022-12-06T23:19:21.993Z,20.563
2022-12-06T23:34:23.850Z,21.612
2022-12-06T23:49:25.675Z,20.121
